Terminal Aerodrome Forecast
Issued by NWS

Home | Current Version | Previous Version | Text Only | Print | Product List | Glossary On
Versions: 1 2 3 4 5 6 7 8 9 10 11 12 13 14 15 16 17 18 19 20 21 22 23 24 25 26 27 28 29 30 31 32 33 34 35
000
FTUS44 KHGX 021740
TAFUTS
TAF
KUTS 021740Z 0218/0318 11006KT P6SM VCSH SKC
     FM022200 14007KT P6SM BKN050 BKN250
     FM030300 13004KT P6SM SCT250
     FM031000 00000KT P6SM SCT025
     FM031500 13003KT P6SM FEW030 SCT150=

USA.gov is the U.S. government's official web portal to all federal, state and local government web resources and services.